createdAt,value
2019-06-08T00:02:12.540Z,74.55
2019-06-08T00:04:43.498Z,75.07
2019-06-08T00:07:14.605Z,75.04
2019-06-08T00:09:45.677Z,74.88
2019-06-08T00:12:16.955Z,75.17
2019-06-08T00:14:47.945Z,75.13
2019-06-08T00:17:34.378Z,75.59
2019-06-08T00:19:51.140Z,75.53
2019-06-08T00:22:22.082Z,75.21
2019-06-08T00:24:52.536Z,75.56
2019-06-08T00:27:24.509Z,75.64
2019-06-08T00:29:55.402Z,75.60
2019-06-08T00:32:28.495Z,75.80
2019-06-08T00:34:58.984Z,75.67
2019-06-08T00:37:29.442Z,75.61
2019-06-08T00:40:00.159Z,75.73
2019-06-08T00:42:30.580Z,75.70
2019-06-08T00:45:01.450Z,76.00
2019-06-08T00:47:46.971Z,75.39
2019-06-08T00:50:07.772Z,75.39
2019-06-08T00:52:38.461Z,75.50
2019-06-08T00:55:09.294Z,75.30
2019-06-08T00:57:40.026Z,75.86
2019-06-08T01:00:11.581Z,75.66
2019-06-08T01:02:42.797Z,75.12
2019-06-08T01:05:13.904Z,74.79
2019-06-08T01:07:44.709Z,75.50
2019-06-08T01:10:15.981Z,75.21
2019-06-08T01:12:47.176Z,74.98
2019-06-08T01:15:23.661Z,75.34
2019-06-08T01:18:02.248Z,75.39
2019-06-08T01:20:23.560Z,75.42
2019-06-08T01:22:54.551Z,75.44
2019-06-08T01:25:27.962Z,75.04
2019-06-08T01:27:58.858Z,75.27
2019-06-08T01:30:30.470Z,75.64
2019-06-08T01:33:01.364Z,74.94
2019-06-08T01:35:32.238Z,75.41
2019-06-08T01:38:02.741Z,75.13
2019-06-08T01:40:33.606Z,75.09
2019-06-08T01:43:04.431Z,75.19
2019-06-08T01:45:34.890Z,75.42
2019-06-08T01:48:19.317Z,75.59
2019-06-08T01:50:39.698Z,75.45
2019-06-08T01:53:10.537Z,75.62
2019-06-08T01:55:41.267Z,75.21
2019-06-08T01:58:12.036Z,74.66
2019-06-08T02:00:42.840Z,74.30
2019-06-08T02:03:13.589Z,74.58
2019-06-08T02:05:44.434Z,73.46
2019-06-08T02:08:15.288Z,73.33
2019-06-08T02:10:46.101Z,74.39
2019-06-08T02:13:16.935Z,74.74
2019-06-08T02:15:47.769Z,74.22
2019-06-08T02:18:35.102Z,73.99
2019-06-08T02:20:50.980Z,74.41
2019-06-08T02:23:21.711Z,74.17
2019-06-08T02:25:52.451Z,74.99
2019-06-08T02:28:23.510Z,75.40
2019-06-08T02:30:54.322Z,75.37
2019-06-08T02:33:25.158Z,75.32
2019-06-08T02:35:55.543Z,75.25
2019-06-08T02:38:27.572Z,75.25
2019-06-08T02:40:59.011Z,75.08
2019-06-08T02:43:30.841Z,74.83
2019-06-08T02:46:01.771Z,74.37
2019-06-08T02:48:33.621Z,74.73
2019-06-08T02:51:07.328Z,75.15
2019-06-08T02:53:38.939Z,75.22
2019-06-08T02:56:12.839Z,74.85
2019-06-08T02:58:43.853Z,74.69
2019-06-08T03:01:16.342Z,74.27
2019-06-08T03:03:49.412Z,73.95
2019-06-08T03:06:22.428Z,73.94
2019-06-08T03:08:56.214Z,73.04
2019-06-08T03:11:27.364Z,73.18
2019-06-08T03:13:58.917Z,73.23
2019-06-08T03:16:31.258Z,73.22
2019-06-08T03:19:19.871Z,73.28
2019-06-08T03:21:36.274Z,73.53
2019-06-08T03:24:06.950Z,73.61
2019-06-08T03:26:39.754Z,73.62
2019-06-08T03:29:10.187Z,73.81
2019-06-08T03:31:53.569Z,73.72
2019-06-08T03:34:13.387Z,72.66
2019-06-08T03:36:54.444Z,71.68
2019-06-08T03:39:16.513Z,70.73
2019-06-08T03:41:47.353Z,69.73
2019-06-08T03:44:18.166Z,70.46
2019-06-08T03:46:48.930Z,70.89
2019-06-08T03:49:40.007Z,73.26
2019-06-08T03:51:52.218Z,74.83
2019-06-08T03:54:23.077Z,74.74
2019-06-08T03:56:54.022Z,76.11
2019-06-08T03:59:25.557Z,76.43
2019-06-08T04:01:56.280Z,76.40
2019-06-08T04:04:27.120Z,77.00
2019-06-08T04:06:57.989Z,76.09
2019-06-08T04:09:28.816Z,75.42
2019-06-08T04:11:59.623Z,74.75
2019-06-08T04:14:30.372Z,74.31
2019-06-08T04:17:01.198Z,73.26
2019-06-08T04:19:32.301Z,73.09
2019-06-08T04:22:03.178Z,73.19
2019-06-08T04:24:33.907Z,72.48
2019-06-08T04:27:04.753Z,72.36
2019-06-08T04:29:35.303Z,72.17
2019-06-08T04:32:06.133Z,72.91
2019-06-08T04:34:36.868Z,73.08
2019-06-08T04:37:07.314Z,72.99
2019-06-08T04:39:38.401Z,73.66
2019-06-08T04:42:09.867Z,72.32
2019-06-08T04:44:42.498Z,72.05
2019-06-08T04:47:13.325Z,70.68
2019-06-08T04:49:44.920Z,70.06
2019-06-08T04:52:16.599Z,70.15
2019-06-08T04:54:48.117Z,69.83
2019-06-08T04:57:19.811Z,69.38
2019-06-08T04:59:50.549Z,69.37
2019-06-08T05:02:21.155Z,69.57
2019-06-08T05:04:52.004Z,69.12
2019-06-08T05:07:22.756Z,69.42
2019-06-08T05:09:53.230Z,68.31
2019-06-08T05:12:23.918Z,67.89
2019-06-08T05:14:54.749Z,68.11
2019-06-08T05:17:25.489Z,66.82
2019-06-08T05:19:56.426Z,66.82
2019-06-08T05:22:27.260Z,66.53
2019-06-08T05:24:58.099Z,66.71
2019-06-08T05:27:28.560Z,66.80
2019-06-08T05:29:59.496Z,66.99
2019-06-08T05:32:30.348Z,67.02
2019-06-08T05:35:01.025Z,66.80
2019-06-08T05:37:31.869Z,66.44
2019-06-08T05:40:02.804Z,65.21
2019-06-08T05:42:33.646Z,65.01
2019-06-08T05:45:09.409Z,64.10
2019-06-08T05:47:41.707Z,63.55
2019-06-08T05:50:13.059Z,62.51
2019-06-08T05:52:44.249Z,62.15
2019-06-08T05:55:15.206Z,61.51
2019-06-08T05:57:46.319Z,61.66
2019-06-08T06:00:17.595Z,61.38
2019-06-08T06:02:48.896Z,60.88
2019-06-08T06:05:20.034Z,60.55
2019-06-08T06:07:51.212Z,60.76
2019-06-08T06:10:22.055Z,61.07
2019-06-08T06:12:52.985Z,59.84
2019-06-08T06:15:23.462Z,59.48
2019-06-08T06:17:54.168Z,58.73
2019-06-08T06:20:24.902Z,58.68
2019-06-08T06:22:58.836Z,58.26
2019-06-08T06:25:28.203Z,57.96
2019-06-08T06:27:58.698Z,57.56
2019-06-08T06:30:29.628Z,57.42
2019-06-08T06:33:01.032Z,57.32
2019-06-08T06:35:31.853Z,57.28
2019-06-08T06:38:02.629Z,57.43
2019-06-08T06:40:33.430Z,56.53
2019-06-08T06:43:04.179Z,56.64
2019-06-08T06:45:35.038Z,56.68
2019-06-08T06:48:06.139Z,56.16
2019-06-08T06:50:36.911Z,56.30
2019-06-08T06:53:07.738Z,55.41
2019-06-08T06:55:38.218Z,56.00
2019-06-08T06:58:08.890Z,55.04
2019-06-08T07:00:39.622Z,54.32
2019-06-08T07:03:10.394Z,54.11
2019-06-08T07:05:41.110Z,53.16
2019-06-08T07:08:11.862Z,53.43
2019-06-08T07:10:42.250Z,53.57
2019-06-08T07:13:13.017Z,53.56
2019-06-08T07:15:44.797Z,53.36
2019-06-08T07:18:15.907Z,53.42
2019-06-08T07:20:48.056Z,54.21
2019-06-08T07:23:19.016Z,53.52
2019-06-08T07:25:50.420Z,53.49
2019-06-08T07:28:21.378Z,53.01
2019-06-08T07:30:52.770Z,53.28
2019-06-08T07:33:23.692Z,53.69
2019-06-08T07:35:55.216Z,53.57
2019-06-08T07:38:26.399Z,52.57
2019-06-08T07:40:59.645Z,52.20
2019-06-08T07:43:29.794Z,52.01
2019-06-08T07:46:00.618Z,52.61
2019-06-08T07:48:31.382Z,52.09
2019-06-08T07:51:02.094Z,52.89
2019-06-08T07:53:32.975Z,53.04
2019-06-08T07:56:03.484Z,53.28
2019-06-08T07:58:34.379Z,52.80
2019-06-08T08:01:08.211Z,53.32
2019-06-08T08:03:37.341Z,53.48
2019-06-08T08:06:07.728Z,53.26
2019-06-08T08:08:38.482Z,53.23
2019-06-08T08:11:09.316Z,53.11
2019-06-08T08:13:40.110Z,53.12
2019-06-08T08:16:10.893Z,53.07
2019-06-08T08:18:41.835Z,52.72
2019-06-08T08:21:22.108Z,53.07
2019-06-08T08:23:45.152Z,53.08
2019-06-08T08:26:15.658Z,53.33
2019-06-08T08:28:50.168Z,53.72
2019-06-08T08:31:18.983Z,53.33
2019-06-08T08:33:50.959Z,52.87
2019-06-08T08:36:22.283Z,53.72
2019-06-08T08:38:53.823Z,53.49
2019-06-08T08:41:24.786Z,52.68
2019-06-08T08:43:58.393Z,53.01
2019-06-08T08:46:28.658Z,53.47
2019-06-08T08:49:08.929Z,52.98
2019-06-08T08:51:32.422Z,52.69
2019-06-08T08:54:05.224Z,53.12
2019-06-08T08:56:35.093Z,52.70
2019-06-08T08:59:07.861Z,52.34
2019-06-08T09:01:38.424Z,52.47
2019-06-08T09:04:09.067Z,51.52
2019-06-08T09:06:40.025Z,51.91
2019-06-08T09:09:10.852Z,51.71
2019-06-08T09:11:41.597Z,52.39
2019-06-08T09:14:13.970Z,51.95
2019-06-08T09:16:47.994Z,50.72
2019-06-08T09:19:20.867Z,52.02
2019-06-08T09:21:52.508Z,50.02
2019-06-08T09:24:23.203Z,50.49
2019-06-08T09:26:54.242Z,51.61
2019-06-08T09:29:25.580Z,51.09
2019-06-08T09:31:58.521Z,50.05
2019-06-08T09:34:29.165Z,50.18
2019-06-08T09:37:02.758Z,50.47
2019-06-08T09:39:32.353Z,50.18
2019-06-08T09:42:04.891Z,49.89
2019-06-08T09:44:37.642Z,49.71
2019-06-08T09:47:12.342Z,49.62
2019-06-08T09:49:41.050Z,49.95
2019-06-08T09:52:11.737Z,49.18
2019-06-08T09:54:42.644Z,49.47
2019-06-08T09:57:13.429Z,49.98
2019-06-08T09:59:44.266Z,49.56
2019-06-08T10:02:15.229Z,49.57
2019-06-08T10:04:48.232Z,49.62
2019-06-08T10:07:18.766Z,50.46
2019-06-08T10:09:50.122Z,50.63
2019-06-08T10:12:21.352Z,50.39
2019-06-08T10:14:51.884Z,50.47
2019-06-08T10:17:22.499Z,50.83
2019-06-08T10:19:54.520Z,50.79
2019-06-08T10:22:28.103Z,50.99
2019-06-08T10:25:02.804Z,50.98
2019-06-08T10:27:30.649Z,50.45
2019-06-08T10:30:03.357Z,50.96
2019-06-08T10:32:35.097Z,51.40
2019-06-08T10:35:10.495Z,50.87
2019-06-08T10:37:40.452Z,51.00
2019-06-08T10:40:11.896Z,50.37
2019-06-08T10:42:42.724Z,50.56
2019-06-08T10:45:15.169Z,50.56
2019-06-08T10:47:47.924Z,50.14
2019-06-08T10:50:20.218Z,49.49
2019-06-08T10:52:51.009Z,49.81
2019-06-08T10:55:21.886Z,49.72
2019-06-08T10:57:52.696Z,49.47
2019-06-08T11:00:24.607Z,48.49
2019-06-08T11:03:01.311Z,49.33
2019-06-08T11:05:28.214Z,47.49
2019-06-08T11:08:00.534Z,48.35
2019-06-08T11:10:31.622Z,47.32
2019-06-08T11:13:35.818Z,46.96
2019-06-08T11:16:10.193Z,47.28
2019-06-08T11:18:38.594Z,47.16
2019-06-08T11:21:12.550Z,47.02
2019-06-08T11:23:41.920Z,45.47
2019-06-08T11:26:19.863Z,45.53
2019-06-08T11:28:44.832Z,44.47
2019-06-08T11:31:16.267Z,45.19
2019-06-08T11:33:49.042Z,44.85
2019-06-08T11:36:20.093Z,44.71
2019-06-08T11:38:50.947Z,44.37
2019-06-08T11:41:22.942Z,41.38
2019-06-08T11:43:54.020Z,40.70
2019-06-08T11:46:24.874Z,41.47
2019-06-08T11:48:57.774Z,40.71
2019-06-08T11:51:29.861Z,40.00
2019-06-08T11:54:01.054Z,39.78
2019-06-08T11:56:31.879Z,40.03
2019-06-08T11:59:03.351Z,40.09
2019-06-08T12:01:34.102Z,39.93
2019-06-08T12:04:05.830Z,39.73
2019-06-08T12:06:37.732Z,39.01
2019-06-08T12:09:09.519Z,39.24
2019-06-08T12:11:40.825Z,39.51
2019-06-08T12:14:14.036Z,38.82
2019-06-08T12:16:43.856Z,39.21
2019-06-08T12:19:17.307Z,39.11
2019-06-08T12:21:49.627Z,38.77
2019-06-08T12:24:19.591Z,38.38
2019-06-08T12:26:52.731Z,39.55
2019-06-08T12:29:22.791Z,39.08
2019-06-08T12:31:53.197Z,40.25
2019-06-08T12:34:24.069Z,40.42
2019-06-08T12:36:54.911Z,39.07
2019-06-08T12:39:28.031Z,40.31
2019-06-08T12:41:58.483Z,40.14
2019-06-08T12:44:29.347Z,39.23
2019-06-08T12:47:00.209Z,38.89
2019-06-08T12:49:31.044Z,38.99
2019-06-08T12:52:02.010Z,38.68
2019-06-08T12:54:32.879Z,37.78
2019-06-08T12:57:03.807Z,37.48
2019-06-08T12:59:34.318Z,37.17
2019-06-08T13:02:05.197Z,37.60
2019-06-08T13:04:38.281Z,37.13
2019-06-08T13:07:09.711Z,37.18
2019-06-08T13:09:40.603Z,36.60
2019-06-08T13:12:11.457Z,36.55
2019-06-08T13:14:42.371Z,37.03
2019-06-08T13:17:14.577Z,36.13
2019-06-08T13:19:48.102Z,36.42
2019-06-08T13:22:20.374Z,36.99
2019-06-08T13:24:50.820Z,36.83
2019-06-08T13:27:23.154Z,37.35
2019-06-08T13:29:54.173Z,37.38
2019-06-08T13:32:25.008Z,36.53
2019-06-08T13:34:58.340Z,35.85
2019-06-08T13:37:28.062Z,36.06
2019-06-08T13:39:59.423Z,36.29
2019-06-08T13:42:30.208Z,36.97
2019-06-08T13:45:01.048Z,37.08
2019-06-08T13:47:31.442Z,36.72
2019-06-08T13:50:02.404Z,37.06
2019-06-08T13:52:32.955Z,37.33
2019-06-08T13:55:06.038Z,37.39
2019-06-08T13:57:38.018Z,36.48
2019-06-08T14:00:10.454Z,37.05
2019-06-08T14:02:41.280Z,36.55
2019-06-08T14:05:12.014Z,36.34
2019-06-08T14:07:42.950Z,36.24
2019-06-08T14:10:17.974Z,36.24
2019-06-08T14:12:49.995Z,37.00
2019-06-08T14:15:21.415Z,35.98
2019-06-08T14:17:52.340Z,36.00
2019-06-08T14:20:32.529Z,35.14
2019-06-08T14:23:00.372Z,35.73
2019-06-08T14:25:46.620Z,36.72
2019-06-08T14:28:03.676Z,36.14
2019-06-08T14:30:34.510Z,36.79
2019-06-08T14:33:08.007Z,36.45
2019-06-08T14:35:37.930Z,37.13
2019-06-08T14:38:08.772Z,36.53
2019-06-08T14:40:39.601Z,36.88
2019-06-08T14:43:10.851Z,36.33
2019-06-08T14:45:41.784Z,36.39
2019-06-08T14:48:12.726Z,36.65
2019-06-08T14:50:43.563Z,36.93
2019-06-08T14:53:15.661Z,36.15
2019-06-08T14:55:48.325Z,35.60
2019-06-08T14:58:23.149Z,36.07
2019-06-08T15:00:51.510Z,36.14
2019-06-08T15:03:23.089Z,36.82
2019-06-08T15:05:53.704Z,36.96
2019-06-08T15:08:25.717Z,36.42
2019-06-08T15:10:58.201Z,36.80
2019-06-08T15:13:31.164Z,37.20
2019-06-08T15:16:01.454Z,37.01
2019-06-08T15:18:32.368Z,37.35
2019-06-08T15:21:02.862Z,36.79
2019-06-08T15:23:33.754Z,36.60
2019-06-08T15:26:04.142Z,37.60
2019-06-08T15:28:36.307Z,38.35
2019-06-08T15:31:08.367Z,37.47
2019-06-08T15:33:39.566Z,37.99
2019-06-08T15:36:10.299Z,37.63
2019-06-08T15:38:41.032Z,38.16
2019-06-08T15:41:11.768Z,37.72
2019-06-08T15:43:42.910Z,37.89
2019-06-08T15:46:15.166Z,37.56
2019-06-08T15:48:48.197Z,37.71
2019-06-08T15:51:18.710Z,37.43
2019-06-08T15:53:49.197Z,38.08
2019-06-08T15:56:45.586Z,37.83
2019-06-08T15:59:09.195Z,37.88
2019-06-08T16:01:39.843Z,37.52
2019-06-08T16:04:10.705Z,37.47
2019-06-08T16:06:41.680Z,36.92
2019-06-08T16:09:13.475Z,37.24
2019-06-08T16:11:44.338Z,37.92
2019-06-08T16:14:15.096Z,37.58
2019-06-08T16:16:45.515Z,37.91
2019-06-08T16:19:16.237Z,37.78
2019-06-08T16:21:47.294Z,37.99
2019-06-08T16:24:17.754Z,38.19
2019-06-08T16:26:53.151Z,38.57
2019-06-08T16:29:21.324Z,37.06
2019-06-08T16:31:52.263Z,36.37
2019-06-08T16:34:23.011Z,37.04
2019-06-08T16:36:53.836Z,37.95
2019-06-08T16:39:24.715Z,36.87
2019-06-08T16:41:55.502Z,36.57
2019-06-08T16:44:26.254Z,32.50
2019-06-08T16:46:57.011Z,31.51
2019-06-08T16:49:29.048Z,30.58
2019-06-08T16:52:00.102Z,29.86
2019-06-08T16:54:30.934Z,29.57
2019-06-08T16:57:09.902Z,28.59
2019-06-08T16:59:34.467Z,29.16
2019-06-08T17:02:04.986Z,28.99
2019-06-08T17:04:37.100Z,29.11
2019-06-08T17:07:08.277Z,29.35
2019-06-08T17:09:40.032Z,29.89
2019-06-08T17:12:11.717Z,30.37
2019-06-08T17:14:42.745Z,30.97
2019-06-08T17:17:13.572Z,31.66
2019-06-08T17:19:44.293Z,31.66
2019-06-08T17:22:15.036Z,32.40
2019-06-08T17:24:45.796Z,32.02
2019-06-08T17:27:26.385Z,32.19
2019-06-08T17:29:48.760Z,32.90
2019-06-08T17:32:19.607Z,33.32
2019-06-08T17:34:50.349Z,33.33
2019-06-08T17:37:21.288Z,33.31
2019-06-08T17:39:52.030Z,33.47
2019-06-08T17:42:22.765Z,34.58
2019-06-08T17:44:53.173Z,34.70
2019-06-08T17:47:24.815Z,35.24
2019-06-08T17:49:56.103Z,35.96
2019-06-08T17:52:28.042Z,36.63
2019-06-08T17:54:59.200Z,36.92
2019-06-08T17:57:42.429Z,37.06
2019-06-08T18:00:02.389Z,37.22
2019-06-08T18:02:33.672Z,37.32
2019-06-08T18:05:07.041Z,37.53
2019-06-08T18:07:38.989Z,38.08
2019-06-08T18:10:10.576Z,38.37
2019-06-08T18:12:44.296Z,38.72
2019-06-08T18:15:17.429Z,38.68
2019-06-08T18:17:48.378Z,39.01
2019-06-08T18:20:20.802Z,39.47
2019-06-08T18:22:51.725Z,39.29
2019-06-08T18:25:22.456Z,38.71
2019-06-08T18:28:06.447Z,39.24
2019-06-08T18:30:27.651Z,38.99
2019-06-08T18:33:01.260Z,39.25
2019-06-08T18:35:32.339Z,39.28
2019-06-08T18:38:07.578Z,39.75
2019-06-08T18:40:39.130Z,39.80
2019-06-08T18:43:10.089Z,40.24
2019-06-08T18:45:42.446Z,40.41
2019-06-08T18:48:13.406Z,40.35
2019-06-08T18:50:45.410Z,40.53
2019-06-08T18:53:18.878Z,40.86
2019-06-08T18:55:50.461Z,41.18
2019-06-08T18:58:53.551Z,41.32
2019-06-08T19:01:23.817Z,41.12
2019-06-08T19:03:57.948Z,41.77
2019-06-08T19:06:29.701Z,41.50
2019-06-08T19:09:01.298Z,41.73
2019-06-08T19:11:32.082Z,42.02
2019-06-08T19:14:03.542Z,42.27
2019-06-08T19:16:34.342Z,41.81
2019-06-08T19:19:07.283Z,41.88
2019-06-08T19:21:39.154Z,42.20
2019-06-08T19:24:09.897Z,41.94
2019-06-08T19:26:42.866Z,42.16
2019-06-08T19:29:13.406Z,42.52
2019-06-08T19:31:45.422Z,42.20
2019-06-08T19:34:18.089Z,42.71
2019-06-08T19:36:54.219Z,42.58
2019-06-08T19:39:23.377Z,42.97
2019-06-08T19:41:54.212Z,42.85
2019-06-08T19:44:24.957Z,43.00
2019-06-08T19:46:57.493Z,43.29
2019-06-08T19:49:28.497Z,42.79
2019-06-08T19:51:59.437Z,42.90
2019-06-08T19:54:30.277Z,43.05
2019-06-08T19:57:03.000Z,43.45
2019-06-08T19:59:39.668Z,43.21
2019-06-08T20:02:09.073Z,43.47
2019-06-08T20:04:42.745Z,43.73
2019-06-08T20:07:13.695Z,43.57
2019-06-08T20:09:45.231Z,43.99
2019-06-08T20:12:18.624Z,43.96
2019-06-08T20:14:57.623Z,44.64
2019-06-08T20:17:28.360Z,44.18
2019-06-08T20:19:59.889Z,45.16
2019-06-08T20:22:31.807Z,45.41
2019-06-08T20:25:02.636Z,44.80
2019-06-08T20:27:33.406Z,44.76
2019-06-08T20:30:12.339Z,45.28
2019-06-08T20:32:42.333Z,45.73
2019-06-08T20:35:13.012Z,45.22
2019-06-08T20:37:44.008Z,45.28
2019-06-08T20:40:14.875Z,45.79
2019-06-08T20:42:49.317Z,45.66
2019-06-08T20:45:18.592Z,45.72
2019-06-08T20:47:51.951Z,45.55
2019-06-08T20:50:22.283Z,45.20
2019-06-08T20:52:53.866Z,45.39
2019-06-08T20:55:24.952Z,45.09
2019-06-08T20:57:57.495Z,44.85
2019-06-08T21:00:28.459Z,45.66
2019-06-08T21:03:02.818Z,45.37
2019-06-08T21:05:31.926Z,45.10
2019-06-08T21:08:02.763Z,46.10
2019-06-08T21:10:33.774Z,45.42
2019-06-08T21:13:07.137Z,45.55
2019-06-08T21:15:40.644Z,45.45
2019-06-08T21:18:11.110Z,46.18
2019-06-08T21:20:41.946Z,45.25
2019-06-08T21:23:12.759Z,45.79
2019-06-08T21:25:43.631Z,46.21
2019-06-08T21:28:14.350Z,45.75
2019-06-08T21:30:46.625Z,46.11
2019-06-08T21:33:17.952Z,46.30
2019-06-08T21:35:50.833Z,46.65
2019-06-08T21:38:24.019Z,46.48
2019-06-08T21:40:55.959Z,46.35
2019-06-08T21:43:27.942Z,47.43
2019-06-08T21:46:01.043Z,46.54
2019-06-08T21:48:31.206Z,46.96
2019-06-08T21:51:02.142Z,47.08
2019-06-08T21:53:33.040Z,47.27
2019-06-08T21:56:03.962Z,47.03
2019-06-08T21:58:34.701Z,47.64
2019-06-08T22:01:07.343Z,48.09
2019-06-08T22:03:38.198Z,47.84
2019-06-08T22:06:09.068Z,48.04
2019-06-08T22:08:39.906Z,47.45
2019-06-08T22:11:10.736Z,47.89
2019-06-08T22:13:42.170Z,48.30
2019-06-08T22:16:13.164Z,47.59
2019-06-08T22:18:47.546Z,47.90
2019-06-08T22:21:18.367Z,47.68
2019-06-08T22:23:49.121Z,47.72
2019-06-08T22:26:19.965Z,48.10
2019-06-08T22:28:52.010Z,47.90
2019-06-08T22:31:23.263Z,47.64
2019-06-08T22:33:54.815Z,47.32
2019-06-08T22:36:27.569Z,47.63
2019-06-08T22:39:00.579Z,48.31
2019-06-08T22:41:31.221Z,47.97
2019-06-08T22:44:03.176Z,47.74
2019-06-08T22:46:34.439Z,47.93
2019-06-08T22:49:07.849Z,48.53
2019-06-08T22:51:38.312Z,48.78
2019-06-08T22:54:09.201Z,48.08
2019-06-08T22:56:42.165Z,48.24
2019-06-08T22:59:13.048Z,48.24
2019-06-08T23:01:44.078Z,48.24
2019-06-08T23:04:15.017Z,48.42
2019-06-08T23:06:47.641Z,48.57
2019-06-08T23:09:18.605Z,48.69
2019-06-08T23:11:49.714Z,48.98
2019-06-08T23:14:20.508Z,49.10
2019-06-08T23:16:51.340Z,49.59
2019-06-08T23:19:21.870Z,49.28
2019-06-08T23:21:52.916Z,50.09
2019-06-08T23:24:23.749Z,49.47
2019-06-08T23:26:54.161Z,49.16
2019-06-08T23:29:27.221Z,49.90
2019-06-08T23:32:00.985Z,50.15
2019-06-08T23:34:29.967Z,50.15
2019-06-08T23:37:04.535Z,49.81
2019-06-08T23:39:32.910Z,50.65
2019-06-08T23:42:03.971Z,50.18
2019-06-08T23:44:34.820Z,50.80
2019-06-08T23:47:08.145Z,50.55
2019-06-08T23:49:38.845Z,50.39
2019-06-08T23:52:11.692Z,50.91
2019-06-08T23:54:43.620Z,51.10
2019-06-08T23:57:18.024Z,51.20
2019-06-08T23:59:49.348Z,51.60
